createdAt,value
2022-08-14T00:10:52.533Z,52.3
2022-08-14T00:15:54.437Z,52.5
2022-08-14T00:31:14.089Z,52.7
2022-08-14T00:36:39.095Z,53.0
2022-08-14T00:42:54.945Z,53.0
2022-08-14T00:46:35.422Z,53.2
2022-08-14T00:51:41.241Z,53.1
2022-08-14T00:56:47.590Z,53.0
2022-08-14T01:01:44.023Z,53.2
2022-08-14T01:08:00.481Z,53.1
2022-08-14T01:12:07.675Z,53.4
2022-08-14T01:18:25.258Z,53.4
2022-08-14T01:22:43.777Z,53.4
2022-08-14T01:27:25.880Z,53.4
2022-08-14T01:45:40.217Z,53.7
2022-08-14T01:47:52.021Z,53.6
2022-08-14T01:53:22.442Z,53.6
2022-08-14T01:58:20.127Z,53.8
2022-08-14T02:08:22.533Z,54.0
2022-08-14T02:13:27.720Z,54.0
2022-08-14T02:18:34.135Z,54.1
2022-08-14T02:23:40.504Z,54.2
2022-08-14T02:28:57.438Z,54.7
2022-08-14T02:34:14.719Z,54.6
2022-08-14T02:38:59.934Z,56.0
2022-08-14T02:44:29.695Z,55.1
2022-08-14T02:49:12.689Z,54.9
2022-08-14T02:54:19.878Z,55.0
2022-08-14T02:59:49.523Z,54.9
2022-08-14T03:04:32.604Z,54.8
2022-08-14T03:15:58.174Z,55.0
2022-08-14T03:19:51.454Z,54.9
2022-08-14T03:25:21.437Z,54.7
2022-08-14T03:30:05.412Z,54.8
2022-08-14T03:35:10.141Z,54.9
2022-08-14T03:40:18.280Z,54.7
2022-08-14T03:45:34.586Z,54.9
2022-08-14T03:50:31.657Z,54.9
2022-08-14T03:55:35.752Z,55.0
2022-08-14T04:00:44.313Z,55.2
2022-08-14T04:05:49.362Z,55.3
2022-08-14T04:10:55.036Z,55.4
2022-08-14T04:16:04.801Z,55.7
2022-08-14T04:21:07.777Z,55.9
2022-08-14T04:26:26.848Z,56.0
2022-08-14T04:36:27.544Z,56.1
2022-08-14T04:41:33.932Z,56.0
2022-08-14T04:46:55.528Z,56.2
2022-08-14T04:51:55.849Z,56.1
2022-08-14T04:56:54.348Z,56.3
2022-08-14T05:02:20.270Z,56.2
2022-08-14T05:07:06.584Z,56.2
2022-08-14T05:17:19.372Z,56.1
2022-08-14T05:22:45.949Z,55.9
2022-08-14T05:28:44.243Z,56.0
2022-08-14T05:34:59.082Z,57.1
2022-08-14T05:38:10.852Z,56.6
2022-08-14T05:45:13.492Z,56.4
2022-08-14T05:47:57.700Z,56.8
2022-08-14T05:53:04.061Z,57.2
2022-08-14T05:58:10.456Z,57.1
2022-08-14T06:03:16.824Z,57.6
2022-08-14T06:08:36.152Z,60.3
2022-08-14T06:13:31.626Z,60.1
2022-08-14T06:23:42.603Z,60.5
2022-08-14T06:29:10.692Z,60.7
2022-08-14T06:35:03.968Z,61.0
2022-08-14T06:39:03.420Z,59.9
2022-08-14T06:46:34.003Z,60.0
2022-08-14T06:50:00.252Z,61.2
2022-08-14T06:54:22.549Z,63.1
2022-08-14T06:59:28.928Z,62.8
2022-08-14T07:04:35.321Z,61.3
2022-08-14T07:14:48.380Z,62.9
2022-08-14T07:25:44.510Z,62.4
2022-08-14T07:30:52.186Z,63.1
2022-08-14T07:36:27.930Z,63.7
2022-08-14T07:41:31.147Z,62.8
2022-08-14T07:46:11.088Z,61.4
2022-08-14T07:51:17.562Z,60.5
2022-08-14T07:56:47.627Z,58.2
2022-08-14T08:21:56.090Z,49.6
2022-08-14T08:37:19.250Z,47.3
2022-08-14T08:47:18.037Z,45.9
2022-08-14T08:52:35.514Z,45.3
2022-08-14T08:57:42.008Z,44.8
2022-08-14T09:02:48.391Z,44.5
2022-08-14T09:07:56.422Z,43.9
2022-08-14T09:12:51.673Z,43.7
2022-08-14T09:28:20.525Z,41.5
2022-08-14T09:33:26.928Z,41.6
2022-08-14T09:38:34.610Z,41.5
2022-08-14T09:44:00.985Z,41.2
2022-08-14T09:48:37.297Z,40.9
2022-08-14T10:04:06.548Z,39.5
2022-08-14T10:17:56.436Z,38.2
2022-08-14T10:23:21.945Z,37.3
2022-08-14T10:28:39.094Z,36.3
2022-08-14T10:33:07.657Z,36.8
2022-08-14T10:38:24.075Z,36.7
2022-08-14T10:43:31.713Z,35.2
2022-08-14T10:49:39.680Z,35.0
2022-08-14T11:09:33.719Z,35.5
2022-08-14T11:14:22.779Z,35.4
2022-08-14T11:19:53.778Z,35.0
2022-08-14T11:29:40.205Z,35.0
2022-08-14T11:40:14.194Z,34.0
2022-08-14T11:45:24.561Z,33.5
2022-08-14T11:50:37.444Z,34.3
2022-08-14T11:55:58.513Z,34.5
2022-08-14T12:01:40.985Z,34.1
2022-08-14T12:06:29.534Z,33.9
2022-08-14T12:15:12.947Z,34.4
2022-08-14T12:17:49.386Z,34.7
2022-08-14T12:22:52.614Z,34.6
2022-08-14T12:26:44.748Z,35.4
2022-08-14T12:32:42.693Z,35.8
2022-08-14T12:37:01.017Z,35.6
2022-08-14T12:42:34.810Z,35.8
2022-08-14T12:48:21.743Z,35.6
2022-08-14T12:53:06.423Z,35.6
2022-08-14T12:57:26.645Z,35.8
2022-08-14T13:02:56.802Z,35.7
2022-08-14T13:07:39.855Z,35.6
2022-08-14T13:15:40.153Z,35.6
2022-08-14T13:17:52.590Z,36.2
2022-08-14T13:28:05.358Z,36.6
2022-08-14T13:33:14.994Z,36.7
2022-08-14T13:38:18.117Z,36.8
2022-08-14T13:43:14.575Z,37.1
2022-08-14T13:48:32.207Z,37.9
2022-08-14T13:53:38.049Z,38.4
2022-08-14T13:59:37.857Z,38.0
2022-08-14T14:03:54.128Z,38.3
2022-08-14T14:09:16.566Z,38.2
2022-08-14T14:13:52.859Z,38.2
2022-08-14T14:19:23.570Z,38.2
2022-08-14T14:24:05.592Z,38.1
2022-08-14T14:29:26.061Z,37.7
2022-08-14T14:34:49.364Z,37.7
2022-08-14T14:39:37.967Z,37.8
2022-08-14T14:44:32.270Z,37.8
2022-08-14T14:49:51.096Z,38.5
2022-08-14T14:54:55.070Z,37.7
2022-08-14T15:00:21.471Z,38.2
2022-08-14T15:05:10.905Z,38.4
2022-08-14T15:10:26.896Z,38.8
2022-08-14T15:15:47.703Z,39.3
2022-08-14T15:20:31.503Z,39.3
2022-08-14T15:25:27.543Z,39.5
2022-08-14T15:30:44.166Z,39.6
2022-08-14T15:35:50.549Z,39.6
2022-08-14T15:40:51.484Z,39.7
2022-08-14T15:46:03.354Z,40.0
2022-08-14T15:51:09.858Z,40.3
2022-08-14T15:56:33.038Z,40.2
2022-08-14T16:01:43.523Z,39.8
2022-08-14T16:06:19.727Z,40.8
2022-08-14T16:11:36.861Z,41.1
2022-08-14T16:16:50.298Z,41.5
2022-08-14T16:22:01.561Z,41.9
2022-08-14T16:27:41.560Z,41.9
2022-08-14T16:32:55.530Z,42.1
2022-08-14T16:37:34.276Z,42.0
2022-08-14T16:43:02.309Z,42.2
2022-08-14T16:47:22.595Z,41.4
2022-08-14T16:52:44.097Z,41.8
2022-08-14T16:59:57.714Z,42.3
2022-08-14T17:03:01.113Z,42.5
2022-08-14T17:07:52.760Z,42.9
2022-08-14T17:13:17.143Z,43.0
2022-08-14T17:18:30.816Z,43.3
2022-08-14T17:23:10.988Z,43.7
2022-08-14T17:28:50.593Z,43.8
2022-08-14T17:33:23.101Z,44.1
2022-08-14T17:38:38.643Z,44.4
2022-08-14T17:44:02.021Z,44.5
2022-08-14T17:49:10.593Z,44.6
2022-08-14T17:54:02.292Z,44.9
2022-08-14T17:59:02.629Z,45.3
2022-08-14T18:04:27.697Z,45.2
2022-08-14T18:10:51.775Z,45.6
2022-08-14T18:14:32.324Z,45.7
2022-08-14T18:19:52.420Z,45.9
2022-08-14T18:24:38.854Z,46.2
2022-08-14T18:29:42.556Z,46.5
2022-08-14T18:34:51.007Z,47.1
2022-08-14T18:40:02.181Z,47.4
2022-08-14T18:45:01.131Z,48.0
2022-08-14T18:50:31.500Z,48.2
2022-08-14T18:55:13.235Z,48.5
2022-08-14T19:00:09.587Z,48.9
2022-08-14T19:10:37.528Z,49.7
2022-08-14T19:15:38.928Z,50.0
2022-08-14T19:21:45.662Z,50.4
2022-08-14T19:36:04.960Z,51.1
2022-08-14T19:41:11.388Z,51.6
2022-08-14T19:47:40.957Z,51.9
2022-08-14T19:57:58.859Z,52.4
2022-08-14T20:02:40.496Z,52.7
2022-08-14T20:07:59.890Z,52.7
2022-08-14T20:12:57.441Z,52.7
2022-08-14T20:17:48.657Z,53.1
2022-08-14T20:23:38.234Z,53.4
2022-08-14T20:28:29.413Z,53.5
2022-08-14T20:33:22.844Z,53.8
2022-08-14T20:38:30.570Z,53.8
2022-08-14T20:43:35.628Z,53.8
2022-08-14T20:48:50.878Z,53.8
2022-08-14T20:58:43.425Z,54.2
2022-08-14T21:03:56.384Z,53.5
2022-08-14T21:09:03.599Z,54.1
2022-08-14T21:14:26.277Z,54.0
2022-08-14T21:19:36.496Z,54.2
2022-08-14T21:24:47.863Z,54.2
2022-08-14T21:29:29.214Z,54.5
2022-08-14T21:34:27.644Z,54.9
2022-08-14T21:51:00.213Z,57.1
2022-08-14T21:56:00.831Z,55.5
2022-08-14T22:01:10.493Z,55.3
2022-08-14T22:06:37.659Z,55.7
2022-08-14T22:11:40.047Z,55.9
2022-08-14T22:17:00.287Z,55.8
2022-08-14T22:27:03.338Z,56.6
2022-08-14T22:31:45.672Z,57.0
2022-08-14T22:41:58.653Z,57.0
2022-08-14T22:47:25.352Z,57.0
2022-08-14T22:52:31.750Z,57.0
2022-08-14T22:57:17.959Z,57.1
2022-08-14T23:02:30.158Z,57.1
2022-08-14T23:08:58.942Z,57.2
2022-08-14T23:12:37.179Z,57.4
2022-08-14T23:17:43.545Z,57.8
2022-08-14T23:22:50.485Z,57.9
2022-08-14T23:28:03.924Z,58.1
2022-08-14T23:33:02.823Z,58.7
2022-08-14T23:38:29.793Z,59.2
2022-08-14T23:43:15.617Z,59.2
2022-08-14T23:48:24.853Z,59.2
2022-08-14T23:53:47.407Z,59.5
2022-08-14T23:58:29.306Z,59.6
